createdAt,value
2022-09-28T00:01:44.495Z,3.50
2022-09-28T00:05:46.204Z,3.47
2022-09-28T00:09:47.853Z,3.10
2022-09-28T00:13:52.177Z,3.00
2022-09-28T00:17:53.791Z,2.90
2022-09-28T00:21:55.370Z,2.87
2022-09-28T00:26:01.066Z,2.78
2022-09-28T00:30:03.907Z,2.80
2022-09-28T00:34:05.816Z,3.00
2022-09-28T00:38:09.196Z,3.03
2022-09-28T00:42:20.376Z,3.85
2022-09-28T00:46:34.512Z,3.78
2022-09-28T00:50:38.226Z,3.58
2022-09-28T00:54:41.651Z,4.00
2022-09-28T00:58:47.080Z,4.32
2022-09-28T01:02:49.211Z,4.28
2022-09-28T01:06:52.123Z,4.80
2022-09-28T01:10:53.859Z,4.60
2022-09-28T01:14:57.787Z,5.20
2022-09-28T01:19:29.772Z,5.00
2022-09-28T01:24:03.659Z,6.12
2022-09-28T01:28:14.769Z,6.95
2022-09-28T01:32:31.447Z,6.80
2022-09-28T01:36:50.806Z,6.60
2022-09-28T01:40:53.924Z,6.75
2022-09-28T01:45:00.579Z,8.02
2022-09-28T01:49:09.106Z,7.78
2022-09-28T01:53:20.411Z,7.55
2022-09-28T01:57:28.724Z,8.52
2022-09-28T02:01:38.810Z,7.87
2022-09-28T02:05:43.719Z,9.32
2022-09-28T02:09:49.955Z,8.40
2022-09-28T02:14:10.168Z,9.35
2022-09-28T02:18:12.122Z,9.65
2022-09-28T02:22:31.582Z,10.48
2022-09-28T02:26:39.363Z,9.63
2022-09-28T02:30:42.791Z,9.77
2022-09-28T02:34:44.523Z,10.00
2022-09-28T02:38:46.418Z,9.43
2022-09-28T02:43:24.134Z,9.73
2022-09-28T02:47:50.750Z,10.40
2022-09-28T02:52:01.390Z,10.55
2022-09-28T02:56:35.852Z,10.50
2022-09-28T03:00:56.063Z,10.85
2022-09-28T03:05:09.804Z,10.10
2022-09-28T03:09:32.636Z,10.75
2022-09-28T03:13:35.233Z,11.15
2022-09-28T03:17:37.077Z,11.32
2022-09-28T03:21:41.899Z,12.10
2022-09-28T03:25:43.508Z,12.90
2022-09-28T03:29:45.141Z,12.32
2022-09-28T03:33:46.792Z,13.35
2022-09-28T03:37:48.380Z,13.45
2022-09-28T03:41:50.056Z,13.60
2022-09-28T03:46:00.118Z,14.20
2022-09-28T03:50:02.098Z,14.20
2022-09-28T03:54:04.087Z,15.30
2022-09-28T03:58:05.734Z,15.23
2022-09-28T04:02:08.206Z,16.50
2022-09-28T04:06:10.085Z,16.42
2022-09-28T04:10:11.706Z,16.65
2022-09-28T04:14:13.350Z,18.05
2022-09-28T04:18:14.944Z,18.98
2022-09-28T04:22:16.657Z,17.70
2022-09-28T04:26:23.607Z,18.85
2022-09-28T04:30:25.442Z,19.33
2022-09-28T04:34:29.791Z,19.05
2022-09-28T04:38:51.795Z,19.83
2022-09-28T04:42:55.887Z,19.60
2022-09-28T04:46:59.706Z,19.62
2022-09-28T04:51:06.826Z,19.45
2022-09-28T04:55:13.575Z,19.27
2022-09-28T04:59:15.250Z,19.33
2022-09-28T05:03:17.901Z,18.17
2022-09-28T05:07:19.499Z,18.42
2022-09-28T05:11:21.530Z,17.50
2022-09-28T05:15:23.136Z,18.55
2022-09-28T05:19:24.829Z,19.45
2022-09-28T05:23:26.554Z,18.25
2022-09-28T05:27:28.302Z,20.10
2022-09-28T05:31:30.126Z,20.50
2022-09-28T05:35:32.136Z,19.30
2022-09-28T05:39:33.803Z,20.30
2022-09-28T05:43:36.200Z,20.10
2022-09-28T05:47:42.470Z,18.10
2022-09-28T05:51:44.182Z,18.92
2022-09-28T05:55:46.673Z,19.52
2022-09-28T05:59:48.316Z,18.42
2022-09-28T06:03:49.999Z,18.95
2022-09-28T06:07:52.718Z,18.33
2022-09-28T06:11:54.608Z,15.30
2022-09-28T06:15:56.406Z,17.12
2022-09-28T06:19:58.404Z,14.63
2022-09-28T06:24:00.446Z,15.52
2022-09-28T06:28:05.005Z,14.50
2022-09-28T06:32:07.471Z,14.10
2022-09-28T06:36:10.046Z,15.90
2022-09-28T06:40:11.646Z,14.55
2022-09-28T06:44:13.298Z,13.15
2022-09-28T06:48:15.249Z,11.95
2022-09-28T06:52:16.850Z,11.50
2022-09-28T06:56:19.415Z,12.05
2022-09-28T07:00:21.040Z,10.00
2022-09-28T07:07:20.651Z,10.70
2022-09-28T07:11:22.249Z,9.93
2022-09-28T07:15:24.713Z,9.70
2022-09-28T07:19:27.247Z,9.32
2022-09-28T07:23:30.446Z,8.30
2022-09-28T07:27:32.098Z,8.00
2022-09-28T07:31:35.062Z,7.80
2022-09-28T07:35:36.715Z,7.22
2022-09-28T07:39:57.688Z,7.37
2022-09-28T07:44:05.904Z,6.90
2022-09-28T07:48:07.548Z,6.43
2022-09-28T07:52:10.596Z,7.12
2022-09-28T07:56:13.945Z,6.32
2022-09-28T08:00:15.783Z,6.47
2022-09-28T08:04:18.079Z,5.97
2022-09-28T08:08:20.195Z,5.60
2022-09-28T08:12:22.326Z,5.80
2022-09-28T08:16:24.078Z,4.87
2022-09-28T08:20:48.044Z,5.15
2022-09-28T08:24:51.130Z,5.03
2022-09-28T08:28:52.785Z,4.82
2022-09-28T08:32:55.105Z,5.37
2022-09-28T08:36:57.440Z,5.20
2022-09-28T08:41:24.069Z,5.47
2022-09-28T08:45:30.754Z,5.95
2022-09-28T08:49:36.864Z,5.65
2022-09-28T08:54:05.791Z,5.25
2022-09-28T08:58:28.235Z,5.87
2022-09-28T09:02:39.473Z,6.07
2022-09-28T09:06:50.043Z,6.40
2022-09-28T09:11:22.915Z,6.15
2022-09-28T09:15:48.049Z,6.55
2022-09-28T09:20:21.653Z,6.90
2022-09-28T09:24:33.040Z,7.85
2022-09-28T09:28:45.294Z,8.20
2022-09-28T09:32:54.227Z,8.18
2022-09-28T09:36:58.639Z,8.25
2022-09-28T09:41:18.986Z,8.20
2022-09-28T09:45:50.132Z,7.18
2022-09-28T09:50:09.102Z,6.70
2022-09-28T09:54:42.645Z,5.90
2022-09-28T09:58:49.648Z,6.78
2022-09-28T10:02:53.127Z,5.95
2022-09-28T10:07:02.874Z,6.12
2022-09-28T10:11:14.469Z,5.70
2022-09-28T10:15:19.471Z,5.97
2022-09-28T10:19:33.535Z,5.55
2022-09-28T10:23:37.759Z,4.30
2022-09-28T10:27:46.172Z,3.90
2022-09-28T10:31:53.154Z,3.30
2022-09-28T10:35:55.378Z,2.62
2022-09-28T10:39:57.355Z,2.70
2022-09-28T10:44:10.851Z,2.75
2022-09-28T10:48:22.219Z,2.47
2022-09-28T10:52:40.287Z,2.35
2022-09-28T10:56:42.235Z,3.05
2022-09-28T11:01:00.710Z,2.78
2022-09-28T11:05:13.812Z,2.05
2022-09-28T11:09:31.593Z,2.60
2022-09-28T11:13:49.374Z,1.90
2022-09-28T11:21:52.568Z,2.15
2022-09-28T11:26:05.638Z,2.72
2022-09-28T11:30:21.119Z,2.12
2022-09-28T11:34:41.496Z,2.35
2022-09-28T11:39:17.845Z,2.30
2022-09-28T11:44:03.615Z,1.98
2022-09-28T11:48:15.499Z,1.85
2022-09-28T11:52:36.587Z,1.70
2022-09-28T11:56:49.954Z,1.80
2022-09-28T12:00:59.229Z,3.05
2022-09-28T12:05:15.963Z,2.17
2022-09-28T12:09:47.710Z,2.12
2022-09-28T12:13:52.703Z,2.80
2022-09-28T12:18:22.610Z,1.73
2022-09-28T12:22:40.565Z,1.90
2022-09-28T12:27:00.973Z,1.55
2022-09-28T12:31:14.778Z,1.90
2022-09-28T12:36:02.453Z,2.72
2022-09-28T12:40:04.719Z,2.20
2022-09-28T12:44:09.626Z,1.90
2022-09-28T12:48:30.182Z,1.92
2022-09-28T12:52:58.113Z,2.30
2022-09-28T12:57:40.499Z,2.40
2022-09-28T13:02:19.824Z,2.20
2022-09-28T13:07:01.152Z,1.60
2022-09-28T13:11:19.061Z,1.00
2022-09-28T13:15:46.490Z,1.05
2022-09-28T13:20:04.629Z,0.70
2022-09-28T13:24:31.111Z,0.77
2022-09-28T13:28:35.466Z,0.80
2022-09-28T13:32:38.829Z,0.73
2022-09-28T13:36:47.144Z,0.80
2022-09-28T13:41:04.153Z,0.77
2022-09-28T13:45:21.096Z,0.67
2022-09-28T13:49:56.183Z,0.80
2022-09-28T13:54:23.635Z,0.70
2022-09-28T13:58:44.031Z,0.80
2022-09-28T14:03:01.801Z,1.12
2022-09-28T14:07:16.593Z,0.88
2022-09-28T14:11:27.299Z,1.00
2022-09-28T14:15:29.353Z,1.05
2022-09-28T14:19:33.921Z,0.90
2022-09-28T14:24:00.153Z,1.02
2022-09-28T14:28:26.587Z,1.15
2022-09-28T14:32:34.579Z,1.60
2022-09-28T14:37:00.354Z,1.55
2022-09-28T14:41:11.250Z,1.40
2022-09-28T14:45:12.815Z,1.65
2022-09-28T14:49:17.421Z,1.87
2022-09-28T14:53:23.791Z,1.40
2022-09-28T14:57:28.902Z,1.83
2022-09-28T15:01:30.845Z,1.60
2022-09-28T15:05:46.853Z,1.80
2022-09-28T15:09:51.468Z,1.75
2022-09-28T15:14:06.245Z,2.90
2022-09-28T15:18:28.659Z,1.23
2022-09-28T15:22:30.399Z,0.80
2022-09-28T15:26:34.106Z,0.70
2022-09-28T15:30:36.450Z,0.90
2022-09-28T15:34:56.716Z,0.65
2022-09-28T15:39:05.503Z,1.02
2022-09-28T15:43:32.806Z,1.40
2022-09-28T15:47:35.219Z,1.10
2022-09-28T15:51:52.126Z,1.00
2022-09-28T15:56:01.635Z,1.27
2022-09-28T16:00:22.854Z,1.42
2022-09-28T16:04:37.843Z,1.15
2022-09-28T16:08:41.924Z,0.70
2022-09-28T16:12:56.483Z,0.90
2022-09-28T16:16:58.182Z,1.20
2022-09-28T16:21:39.057Z,0.90
2022-09-28T16:25:51.619Z,1.00
2022-09-28T16:30:14.254Z,1.90
2022-09-28T16:34:19.878Z,2.60
2022-09-28T16:38:21.680Z,2.17
2022-09-28T16:42:24.258Z,2.45
2022-09-28T16:46:32.091Z,3.42
2022-09-28T16:50:33.782Z,3.60
2022-09-28T16:54:54.192Z,1.60
2022-09-28T16:58:56.053Z,2.05
2022-09-28T17:02:58.345Z,1.90
2022-09-28T17:07:00.047Z,2.28
2022-09-28T17:11:23.398Z,6.68
2022-09-28T17:15:25.991Z,3.40
2022-09-28T17:19:29.671Z,2.80
2022-09-28T17:23:31.292Z,3.00
2022-09-28T17:27:32.924Z,1.95
2022-09-28T17:31:34.654Z,2.72
2022-09-28T17:35:39.627Z,1.62
2022-09-28T17:39:41.467Z,1.30
2022-09-28T17:43:43.394Z,1.15
2022-09-28T17:47:45.031Z,1.50
2022-09-28T17:51:47.184Z,8.25
2022-09-28T17:55:48.972Z,6.07
2022-09-28T17:59:50.942Z,7.45
2022-09-28T18:03:52.546Z,4.95
2022-09-28T18:07:54.585Z,4.80
2022-09-28T18:12:00.779Z,6.97
2022-09-28T18:16:03.693Z,3.90
2022-09-28T18:20:08.386Z,3.78
2022-09-28T18:24:09.945Z,3.08
2022-09-28T18:28:17.824Z,3.90
2022-09-28T18:32:19.612Z,4.25
2022-09-28T18:36:21.206Z,5.43
2022-09-28T18:40:23.181Z,5.20
2022-09-28T18:44:24.865Z,4.50
2022-09-28T18:48:27.853Z,4.50
2022-09-28T18:52:29.500Z,3.95
2022-09-28T18:56:31.086Z,3.97
2022-09-28T19:00:32.763Z,5.05
2022-09-28T19:04:34.358Z,6.57
2022-09-28T19:08:39.408Z,6.20
2022-09-28T19:12:41.022Z,6.20
2022-09-28T19:16:44.345Z,7.25
2022-09-28T19:20:46.014Z,8.35
2022-09-28T19:24:47.774Z,8.48
2022-09-28T19:28:49.951Z,9.63
2022-09-28T19:32:51.552Z,11.60
2022-09-28T19:36:53.178Z,10.95
2022-09-28T19:40:55.081Z,11.40
2022-09-28T19:44:57.155Z,12.10
2022-09-28T19:49:09.195Z,12.60
2022-09-28T19:53:10.836Z,12.63
2022-09-28T19:57:15.573Z,12.57
2022-09-28T20:01:17.336Z,15.95
2022-09-28T20:05:19.170Z,17.48
2022-09-28T20:09:20.914Z,15.10
2022-09-28T20:13:28.920Z,18.00
2022-09-28T20:17:30.798Z,16.40
2022-09-28T20:21:32.581Z,14.50
2022-09-28T20:25:34.686Z,13.65
2022-09-28T20:29:36.743Z,13.00
2022-09-28T20:33:38.939Z,13.00
2022-09-28T20:37:40.716Z,11.57
2022-09-28T20:41:42.343Z,11.73
2022-09-28T20:45:44.191Z,11.52
2022-09-28T20:49:46.287Z,11.70
2022-09-28T20:53:53.069Z,11.80
2022-09-28T20:57:54.741Z,14.45
2022-09-28T21:01:56.466Z,15.13
2022-09-28T21:05:58.401Z,13.70
2022-09-28T21:10:00.043Z,13.80
2022-09-28T21:14:03.794Z,11.50
2022-09-28T21:18:05.503Z,11.45
2022-09-28T21:22:07.524Z,10.90
2022-09-28T21:26:24.688Z,10.05
2022-09-28T21:30:26.619Z,10.90
2022-09-28T21:34:28.275Z,10.25
2022-09-28T21:38:30.859Z,10.50
2022-09-28T21:42:32.523Z,10.68
2022-09-28T21:46:35.266Z,10.57
2022-09-28T21:50:37.031Z,11.12
2022-09-28T21:54:38.689Z,11.43
2022-09-28T21:58:40.645Z,11.32
2022-09-28T22:02:43.594Z,11.55
2022-09-28T22:06:45.254Z,12.10
2022-09-28T22:11:00.654Z,10.82
2022-09-28T22:15:03.045Z,10.85
2022-09-28T22:19:04.724Z,11.12
2022-09-28T22:23:06.299Z,9.65
2022-09-28T22:27:07.883Z,10.20
2022-09-28T22:31:09.596Z,10.82
2022-09-28T22:35:11.507Z,10.85
2022-09-28T22:39:14.424Z,9.93
2022-09-28T22:43:16.778Z,9.82
2022-09-28T22:47:18.439Z,8.95
2022-09-28T22:51:20.958Z,10.55
2022-09-28T22:55:22.622Z,10.85
2022-09-28T22:59:24.287Z,9.25
2022-09-28T23:03:25.925Z,9.93
2022-09-28T23:07:27.584Z,9.75
2022-09-28T23:11:29.250Z,8.93
2022-09-28T23:15:30.951Z,9.77
2022-09-28T23:19:32.542Z,10.27
2022-09-28T23:23:34.402Z,9.45
2022-09-28T23:27:36.128Z,9.90
2022-09-28T23:31:39.051Z,9.00
2022-09-28T23:35:41.760Z,9.23
2022-09-28T23:39:43.547Z,9.68
2022-09-28T23:43:45.317Z,9.32
2022-09-28T23:47:46.916Z,9.25
2022-09-28T23:51:48.846Z,10.98
2022-09-28T23:55:50.547Z,10.60
2022-09-28T23:59:52.183Z,9.50
